sensor_id;sensor_type;location;lat;lon;timestamp;P1;durP1;ratioP1;P2;durP2;ratioP2
29200;SDS011;16244;51.956;12.980;2024-03-23T00:53:18;8.60;;;1.60;;
29200;SDS011;16244;51.956;12.980;2024-03-23T00:55:47;3.80;;;1.53;;
29200;SDS011;16244;51.956;12.980;2024-03-23T00:58:14;12.40;;;1.40;;
29200;SDS011;16244;51.956;12.980;2024-03-23T01:00:44;4.70;;;1.67;;
29200;SDS011;16244;51.956;12.980;2024-03-23T01:03:11;7.83;;;1.97;;
29200;SDS011;16244;51.956;12.980;2024-03-23T01:05:38;5.37;;;1.40;;
29200;SDS011;16244;51.956;12.980;2024-03-23T01:08:06;5.53;;;1.03;;
29200;SDS011;16244;51.956;12.980;2024-03-23T01:10:35;10.20;;;1.30;;
29200;SDS011;16244;51.956;12.980;2024-03-23T01:13:02;10.83;;;2.20;;
29200;SDS011;16244;51.956;12.980;2024-03-23T01:15:29;3.93;;;1.53;;
29200;SDS011;16244;51.956;12.980;2024-03-23T01:17:57;13.97;;;1.63;;
29200;SDS011;16244;51.956;12.980;2024-03-23T01:20:24;10.23;;;1.73;;
29200;SDS011;16244;51.956;12.980;2024-03-23T01:22:53;5.80;;;1.47;;
29200;SDS011;16244;51.956;12.980;2024-03-23T01:25:20;4.73;;;1.73;;
29200;SDS011;16244;51.956;12.980;2024-03-23T01:27:48;7.77;;;1.10;;
29200;SDS011;16244;51.956;12.980;2024-03-23T01:30:15;6.23;;;1.43;;
29200;SDS011;16244;51.956;12.980;2024-03-23T01:32:43;9.83;;;1.60;;
29200;SDS011;16244;51.956;12.980;2024-03-23T01:35:09;18.13;;;1.63;;
29200;SDS011;16244;51.956;12.980;2024-03-23T01:37:37;8.23;;;1.10;;
29200;SDS011;16244;51.956;12.980;2024-03-23T01:40:04;13.47;;;2.20;;
29200;SDS011;16244;51.956;12.980;2024-03-23T01:42:32;13.50;;;2.30;;
29200;SDS011;16244;51.956;12.980;2024-03-23T01:45:02;8.93;;;1.37;;
29200;SDS011;16244;51.956;12.980;2024-03-23T01:47:34;6.53;;;1.30;;
29200;SDS011;16244;51.956;12.980;2024-03-23T01:50:00;7.47;;;1.20;;
29200;SDS011;16244;51.956;12.980;2024-03-23T01:52:28;13.73;;;1.60;;
29200;SDS011;16244;51.956;12.980;2024-03-23T01:54:56;21.97;;;1.20;;
29200;SDS011;16244;51.956;12.980;2024-03-23T01:57:24;2.93;;;0.90;;
29200;SDS011;16244;51.956;12.980;2024-03-23T01:59:50;12.30;;;1.50;;
29200;SDS011;16244;51.956;12.980;2024-03-23T02:02:20;4.57;;;1.57;;
29200;SDS011;16244;51.956;12.980;2024-03-23T02:04:47;8.13;;;1.70;;
29200;SDS011;16244;51.956;12.980;2024-03-23T02:07:14;3.70;;;0.90;;
29200;SDS011;16244;51.956;12.980;2024-03-23T02:09:41;3.03;;;0.80;;
29200;SDS011;16244;51.956;12.980;2024-03-23T02:12:09;4.13;;;1.17;;
29200;SDS011;16244;51.956;12.980;2024-03-23T02:14:36;13.23;;;1.00;;
29200;SDS011;16244;51.956;12.980;2024-03-23T02:17:04;7.60;;;1.30;;
29200;SDS011;16244;51.956;12.980;2024-03-23T02:19:32;4.83;;;1.00;;
29200;SDS011;16244;51.956;12.980;2024-03-23T02:22:00;12.73;;;1.07;;
29200;SDS011;16244;51.956;12.980;2024-03-23T02:24:28;7.80;;;1.80;;
29200;SDS011;16244;51.956;12.980;2024-03-23T02:26:56;8.60;;;1.30;;
29200;SDS011;16244;51.956;12.980;2024-03-23T02:29:23;3.27;;;0.90;;
29200;SDS011;16244;51.956;12.980;2024-03-23T02:31:51;4.73;;;1.23;;
29200;SDS011;16244;51.956;12.980;2024-03-23T02:34:18;3.20;;;1.00;;
29200;SDS011;16244;51.956;12.980;2024-03-23T02:36:45;4.07;;;1.40;;
29200;SDS011;16244;51.956;12.980;2024-03-23T02:39:12;1.50;;;1.40;;
29200;SDS011;16244;51.956;12.980;2024-03-23T02:41:42;8.00;;;1.53;;
29200;SDS011;16244;51.956;12.980;2024-03-23T02:44:08;8.50;;;1.47;;
29200;SDS011;16244;51.956;12.980;2024-03-23T02:46:37;4.10;;;1.10;;
29200;SDS011;16244;51.956;12.980;2024-03-23T02:49:04;6.33;;;1.13;;
29200;SDS011;16244;51.956;12.980;2024-03-23T02:51:33;8.20;;;1.10;;
29200;SDS011;16244;51.956;12.980;2024-03-23T02:53:59;9.13;;;1.13;;
29200;SDS011;16244;51.956;12.980;2024-03-23T02:56:27;4.40;;;1.00;;
29200;SDS011;16244;51.956;12.980;2024-03-23T02:58:55;6.33;;;0.90;;
29200;SDS011;16244;51.956;12.980;2024-03-23T03:01:22;3.50;;;0.77;;
29200;SDS011;16244;51.956;12.980;2024-03-23T03:03:49;3.07;;;0.93;;
29200;SDS011;16244;51.956;12.980;2024-03-23T03:06:22;7.33;;;1.97;;
29200;SDS011;16244;51.956;12.980;2024-03-23T03:08:49;5.53;;;1.50;;
29200;SDS011;16244;51.956;12.980;2024-03-23T03:11:17;2.87;;;0.73;;
29200;SDS011;16244;51.956;12.980;2024-03-23T03:13:43;6.37;;;1.27;;
29200;SDS011;16244;51.956;12.980;2024-03-23T03:16:12;8.47;;;1.23;;
29200;SDS011;16244;51.956;12.980;2024-03-23T03:18:39;20.27;;;7.67;;
29200;SDS011;16244;51.956;12.980;2024-03-23T03:21:07;13.60;;;6.43;;
29200;SDS011;16244;51.956;12.980;2024-03-23T03:23:36;10.40;;;2.10;;
29200;SDS011;16244;51.956;12.980;2024-03-23T03:26:04;4.27;;;1.60;;
29200;SDS011;16244;51.956;12.980;2024-03-23T03:28:31;8.17;;;1.47;;
29200;SDS011;16244;51.956;12.980;2024-03-23T03:30:58;12.10;;;1.50;;
29200;SDS011;16244;51.956;12.980;2024-03-23T03:33:27;10.40;;;1.50;;
29200;SDS011;16244;51.956;12.980;2024-03-23T03:35:55;12.37;;;1.77;;
29200;SDS011;16244;51.956;12.980;2024-03-23T03:38:22;1.10;;;1.00;;
29200;SDS011;16244;51.956;12.980;2024-03-23T03:40:50;5.50;;;1.73;;
29200;SDS011;16244;51.956;12.980;2024-03-23T03:43:18;2.93;;;1.07;;
29200;SDS011;16244;51.956;12.980;2024-03-23T03:45:51;10.10;;;1.73;;
29200;SDS011;16244;51.956;12.980;2024-03-23T03:48:18;3.70;;;1.50;;
29200;SDS011;16244;51.956;12.980;2024-03-23T03:50:46;11.60;;;1.20;;
29200;SDS011;16244;51.956;12.980;2024-03-23T03:53:13;9.77;;;0.97;;
29200;SDS011;16244;51.956;12.980;2024-03-23T03:55:40;8.83;;;1.33;;
29200;SDS011;16244;51.956;12.980;2024-03-23T03:58:07;8.73;;;1.70;;
29200;SDS011;16244;51.956;12.980;2024-03-23T04:00:35;12.57;;;1.63;;
29200;SDS011;16244;51.956;12.980;2024-03-23T04:03:02;8.53;;;1.00;;
29200;SDS011;16244;51.956;12.980;2024-03-23T04:05:29;8.30;;;1.20;;
29200;SDS011;16244;51.956;12.980;2024-03-23T04:07:57;4.90;;;1.10;;
29200;SDS011;16244;51.956;12.980;2024-03-23T04:10:25;1.57;;;0.90;;
29200;SDS011;16244;51.956;12.980;2024-03-23T04:12:52;5.37;;;0.90;;
29200;SDS011;16244;51.956;12.980;2024-03-23T04:15:21;2.87;;;1.10;;
29200;SDS011;16244;51.956;12.980;2024-03-23T04:17:48;10.57;;;1.13;;
29200;SDS011;16244;51.956;12.980;2024-03-23T04:20:16;3.03;;;2.57;;
29200;SDS011;16244;51.956;12.980;2024-03-23T04:22:42;3.60;;;1.03;;
29200;SDS011;16244;51.956;12.980;2024-03-23T04:25:13;6.23;;;2.00;;
29200;SDS011;16244;51.956;12.980;2024-03-23T04:27:40;4.70;;;1.50;;
29200;SDS011;16244;51.956;12.980;2024-03-23T04:30:08;11.03;;;1.70;;
29200;SDS011;16244;51.956;12.980;2024-03-23T04:32:36;2.50;;;0.80;;
29200;SDS011;16244;51.956;12.980;2024-03-23T04:35:08;13.57;;;2.70;;
29200;SDS011;16244;51.956;12.980;2024-03-23T04:37:35;5.83;;;2.80;;
29200;SDS011;16244;51.956;12.980;2024-03-23T04:40:03;10.33;;;1.73;;
29200;SDS011;16244;51.956;12.980;2024-03-23T04:42:34;14.27;;;3.60;;
29200;SDS011;16244;51.956;12.980;2024-03-23T04:45:02;2.97;;;1.00;;
29200;SDS011;16244;51.956;12.980;2024-03-23T04:47:30;6.47;;;1.90;;
29200;SDS011;16244;51.956;12.980;2024-03-23T04:49:58;4.53;;;1.50;;
29200;SDS011;16244;51.956;12.980;2024-03-23T04:52:27;5.27;;;1.43;;
29200;SDS011;16244;51.956;12.980;2024-03-23T04:54:53;13.30;;;1.20;;
29200;SDS011;16244;51.956;12.980;2024-03-23T04:57:22;6.10;;;1.30;;
29200;SDS011;16244;51.956;12.980;2024-03-23T04:59:50;6.57;;;1.90;;
29200;SDS011;16244;51.956;12.980;2024-03-23T05:02:17;2.37;;;1.10;;
29200;SDS011;16244;51.956;12.980;2024-03-23T05:04:44;4.87;;;1.10;;
29200;SDS011;16244;51.956;12.980;2024-03-23T05:07:12;5.57;;;1.47;;
29200;SDS011;16244;51.956;12.980;2024-03-23T05:09:38;2.80;;;1.33;;
29200;SDS011;16244;51.956;12.980;2024-03-23T05:12:06;4.43;;;1.50;;
29200;SDS011;16244;51.956;12.980;2024-03-23T05:14:33;5.23;;;1.33;;
29200;SDS011;16244;51.956;12.980;2024-03-23T05:17:02;3.00;;;1.30;;
29200;SDS011;16244;51.956;12.980;2024-03-23T05:19:28;7.30;;;1.37;;
29200;SDS011;16244;51.956;12.980;2024-03-23T05:21:59;6.73;;;1.80;;
29200;SDS011;16244;51.956;12.980;2024-03-23T05:24:25;4.03;;;1.13;;
29200;SDS011;16244;51.956;12.980;2024-03-23T05:26:53;9.53;;;1.37;;
29200;SDS011;16244;51.956;12.980;2024-03-23T05:29:19;12.63;;;1.80;;
29200;SDS011;16244;51.956;12.980;2024-03-23T05:31:49;9.03;;;1.33;;
29200;SDS011;16244;51.956;12.980;2024-03-23T05:34:19;7.40;;;1.23;;
29200;SDS011;16244;51.956;12.980;2024-03-23T05:36:46;8.73;;;1.40;;
29200;SDS011;16244;51.956;12.980;2024-03-23T05:39:15;11.00;;;1.10;;
29200;SDS011;16244;51.956;12.980;2024-03-23T05:41:43;7.80;;;3.07;;
29200;SDS011;16244;51.956;12.980;2024-03-23T05:44:10;3.77;;;1.67;;
29200;SDS011;16244;51.956;12.980;2024-03-23T05:46:37;7.17;;;1.40;;
29200;SDS011;16244;51.956;12.980;2024-03-23T05:49:04;12.37;;;1.07;;
29200;SDS011;16244;51.956;12.980;2024-03-23T05:51:33;9.03;;;1.77;;
29200;SDS011;16244;51.956;12.980;2024-03-23T05:54:00;6.03;;;1.43;;
29200;SDS011;16244;51.956;12.980;2024-03-23T05:56:27;14.43;;;1.20;;
29200;SDS011;16244;51.956;12.980;2024-03-23T05:58:54;8.07;;;1.67;;
29200;SDS011;16244;51.956;12.980;2024-03-23T06:01:21;2.90;;;1.27;;
29200;SDS011;16244;51.956;12.980;2024-03-23T06:03:48;4.30;;;1.27;;
29200;SDS011;16244;51.956;12.980;2024-03-23T06:06:15;2.27;;;1.10;;
29200;SDS011;16244;51.956;12.980;2024-03-23T06:08:44;11.03;;;1.53;;
29200;SDS011;16244;51.956;12.980;2024-03-23T06:11:16;7.37;;;1.17;;
29200;SDS011;16244;51.956;12.980;2024-03-23T06:13:42;10.13;;;1.30;;
29200;SDS011;16244;51.956;12.980;2024-03-23T06:16:10;1.23;;;1.10;;
29200;SDS011;16244;51.956;12.980;2024-03-23T06:18:40;5.83;;;1.50;;
29200;SDS011;16244;51.956;12.980;2024-03-23T06:21:12;5.80;;;4.37;;
29200;SDS011;16244;51.956;12.980;2024-03-23T06:23:40;16.47;;;4.50;;
29200;SDS011;16244;51.956;12.980;2024-03-23T06:26:15;4.20;;;3.33;;
29200;SDS011;16244;51.956;12.980;2024-03-23T06:28:41;24.73;;;6.37;;
29200;SDS011;16244;51.956;12.980;2024-03-23T06:31:09;8.23;;;1.90;;
29200;SDS011;16244;51.956;12.980;2024-03-23T06:33:36;4.53;;;1.77;;
29200;SDS011;16244;51.956;12.980;2024-03-23T06:36:05;4.20;;;1.33;;
29200;SDS011;16244;51.956;12.980;2024-03-23T06:38:33;3.43;;;1.20;;
29200;SDS011;16244;51.956;12.980;2024-03-23T06:41:02;17.23;;;6.90;;
29200;SDS011;16244;51.956;12.980;2024-03-23T06:43:30;35.90;;;14.10;;
29200;SDS011;16244;51.956;12.980;2024-03-23T06:45:58;14.20;;;7.87;;
29200;SDS011;16244;51.956;12.980;2024-03-23T06:48:24;14.23;;;7.33;;
29200;SDS011;16244;51.956;12.980;2024-03-23T06:50:55;4.10;;;3.57;;
29200;SDS011;16244;51.956;12.980;2024-03-23T06:53:22;13.90;;;6.27;;
29200;SDS011;16244;51.956;12.980;2024-03-23T06:55:52;7.07;;;4.37;;
29200;SDS011;16244;51.956;12.980;2024-03-23T06:58:20;3.83;;;3.07;;
29200;SDS011;16244;51.956;12.980;2024-03-23T07:00:49;2.87;;;1.40;;
29200;SDS011;16244;51.956;12.980;2024-03-23T07:03:16;2.73;;;2.63;;
29200;SDS011;16244;51.956;12.980;2024-03-23T07:05:44;1.90;;;1.40;;
29200;SDS011;16244;51.956;12.980;2024-03-23T07:08:12;2.67;;;2.13;;
29200;SDS011;16244;51.956;12.980;2024-03-23T07:10:44;2.27;;;1.23;;
29200;SDS011;16244;51.956;12.980;2024-03-23T07:13:11;1.93;;;1.73;;
29200;SDS011;16244;51.956;12.980;2024-03-23T07:15:38;2.63;;;2.20;;
29200;SDS011;16244;51.956;12.980;2024-03-23T07:18:06;1.23;;;1.10;;
29200;SDS011;16244;51.956;12.980;2024-03-23T07:20:34;2.50;;;1.00;;
29200;SDS011;16244;51.956;12.980;2024-03-23T07:23:01;2.40;;;1.03;;
29200;SDS011;16244;51.956;12.980;2024-03-23T07:25:28;1.23;;;0.70;;
29200;SDS011;16244;51.956;12.980;2024-03-23T07:27:55;1.23;;;1.13;;
29200;SDS011;16244;51.956;12.980;2024-03-23T07:30:25;2.40;;;1.07;;
29200;SDS011;16244;51.956;12.980;2024-03-23T07:32:52;6.00;;;1.40;;
29200;SDS011;16244;51.956;12.980;2024-03-23T07:35:21;1.43;;;0.80;;
29200;SDS011;16244;51.956;12.980;2024-03-23T07:37:48;2.60;;;0.77;;
29200;SDS011;16244;51.956;12.980;2024-03-23T07:40:17;6.23;;;0.70;;
29200;SDS011;16244;51.956;12.980;2024-03-23T07:42:44;3.87;;;1.00;;
29200;SDS011;16244;51.956;12.980;2024-03-23T07:45:12;2.03;;;0.83;;
29200;SDS011;16244;51.956;12.980;2024-03-23T07:47:38;1.07;;;0.83;;
29200;SDS011;16244;51.956;12.980;2024-03-23T07:50:06;4.67;;;0.70;;
29200;SDS011;16244;51.956;12.980;2024-03-23T07:52:35;2.00;;;0.90;;
29200;SDS011;16244;51.956;12.980;2024-03-23T07:55:03;2.20;;;0.90;;
29200;SDS011;16244;51.956;12.980;2024-03-23T07:57:29;3.80;;;0.80;;
29200;SDS011;16244;51.956;12.980;2024-03-23T07:59:57;2.80;;;1.20;;
29200;SDS011;16244;51.956;12.980;2024-03-23T08:02:24;1.33;;;0.60;;
29200;SDS011;16244;51.956;12.980;2024-03-23T08:04:51;1.53;;;0.60;;
29200;SDS011;16244;51.956;12.980;2024-03-23T08:07:18;12.53;;;1.10;;
29200;SDS011;16244;51.956;12.980;2024-03-23T08:09:46;1.37;;;0.80;;
29200;SDS011;16244;51.956;12.980;2024-03-23T08:12:13;0.93;;;0.60;;
29200;SDS011;16244;51.956;12.980;2024-03-23T08:14:41;1.27;;;0.70;;
29200;SDS011;16244;51.956;12.980;2024-03-23T08:17:10;2.00;;;0.77;;
29200;SDS011;16244;51.956;12.980;2024-03-23T08:19:37;1.80;;;0.80;;
29200;SDS011;16244;51.956;12.980;2024-03-23T08:22:04;2.67;;;0.70;;
29200;SDS011;16244;51.956;12.980;2024-03-23T08:24:31;0.50;;;0.50;;
29200;SDS011;16244;51.956;12.980;2024-03-23T08:27:01;0.47;;;0.47;;
29200;SDS011;16244;51.956;12.980;2024-03-23T08:29:30;1.40;;;0.60;;
29200;SDS011;16244;51.956;12.980;2024-03-23T08:31:57;1.40;;;0.50;;
29200;SDS011;16244;51.956;12.980;2024-03-23T08:34:26;0.40;;;0.40;;
29200;SDS011;16244;51.956;12.980;2024-03-23T08:36:53;1.67;;;0.60;;
29200;SDS011;16244;51.956;12.980;2024-03-23T08:39:20;2.93;;;0.60;;
29200;SDS011;16244;51.956;12.980;2024-03-23T08:41:48;2.37;;;0.43;;
29200;SDS011;16244;51.956;12.980;2024-03-23T08:44:18;0.50;;;0.50;;
29200;SDS011;16244;51.956;12.980;2024-03-23T08:46:45;0.83;;;0.63;;
29200;SDS011;16244;51.956;12.980;2024-03-23T08:49:12;0.40;;;0.40;;
29200;SDS011;16244;51.956;12.980;2024-03-23T08:51:40;0.50;;;0.40;;
29200;SDS011;16244;51.956;12.980;2024-03-23T08:54:07;0.40;;;0.40;;
29200;SDS011;16244;51.956;12.980;2024-03-23T08:56:34;0.40;;;0.40;;
29200;SDS011;16244;51.956;12.980;2024-03-23T08:59:02;5.50;;;1.63;;
29200;SDS011;16244;51.956;12.980;2024-03-23T09:01:30;0.83;;;0.73;;
29200;SDS011;16244;51.956;12.980;2024-03-23T09:03:58;0.60;;;0.60;;
29200;SDS011;16244;51.956;12.980;2024-03-23T09:06:24;0.80;;;0.57;;
29200;SDS011;16244;51.956;12.980;2024-03-23T09:08:52;0.53;;;0.53;;
29200;SDS011;16244;51.956;12.980;2024-03-23T09:11:18;0.63;;;0.47;;
29200;SDS011;16244;51.956;12.980;2024-03-23T09:13:46;1.13;;;0.40;;
29200;SDS011;16244;51.956;12.980;2024-03-23T09:16:12;1.50;;;0.50;;
29200;SDS011;16244;51.956;12.980;2024-03-23T09:18:41;1.07;;;0.50;;
29200;SDS011;16244;51.956;12.980;2024-03-23T09:21:11;1.00;;;1.00;;
29200;SDS011;16244;51.956;12.980;2024-03-23T09:23:42;0.60;;;0.50;;
29200;SDS011;16244;51.956;12.980;2024-03-23T09:26:09;5.60;;;0.60;;
29200;SDS011;16244;51.956;12.980;2024-03-23T09:28:37;0.30;;;0.30;;
29200;SDS011;16244;51.956;12.980;2024-03-23T09:31:04;0.40;;;0.40;;
29200;SDS011;16244;51.956;12.980;2024-03-23T09:33:31;1.40;;;0.50;;
29200;SDS011;16244;51.956;12.980;2024-03-23T09:36:02;0.30;;;0.30;;
29200;SDS011;16244;51.956;12.980;2024-03-23T09:38:30;1.27;;;1.27;;
29200;SDS011;16244;51.956;12.980;2024-03-23T09:40:57;6.80;;;0.50;;
29200;SDS011;16244;51.956;12.980;2024-03-23T09:43:25;0.57;;;0.30;;
29200;SDS011;16244;51.956;12.980;2024-03-23T09:45:52;1.23;;;0.33;;
29200;SDS011;16244;51.956;12.980;2024-03-23T09:48:20;0.33;;;0.33;;
29200;SDS011;16244;51.956;12.980;2024-03-23T09:50:46;0.60;;;0.40;;
29200;SDS011;16244;51.956;12.980;2024-03-23T09:53:16;0.50;;;0.50;;
29200;SDS011;16244;51.956;12.980;2024-03-23T09:55:43;0.30;;;0.30;;
29200;SDS011;16244;51.956;12.980;2024-03-23T09:58:12;0.50;;;0.50;;
29200;SDS011;16244;51.956;12.980;2024-03-23T10:00:39;0.67;;;0.60;;
29200;SDS011;16244;51.956;12.980;2024-03-23T10:03:06;0.50;;;0.50;;
29200;SDS011;16244;51.956;12.980;2024-03-23T10:05:34;2.87;;;0.40;;
29200;SDS011;16244;51.956;12.980;2024-03-23T10:08:02;0.80;;;0.50;;
29200;SDS011;16244;51.956;12.980;2024-03-23T10:10:45;0.93;;;0.47;;
29200;SDS011;16244;51.956;12.980;2024-03-23T10:13:23;1.20;;;0.50;;
29200;SDS011;16244;51.956;12.980;2024-03-23T10:15:55;0.67;;;0.67;;
29200;SDS011;16244;51.956;12.980;2024-03-23T10:18:23;1.90;;;0.50;;
29200;SDS011;16244;51.956;12.980;2024-03-23T10:20:52;0.30;;;0.30;;
29200;SDS011;16244;51.956;12.980;2024-03-23T10:23:33;1.13;;;0.50;;
29200;SDS011;16244;51.956;12.980;2024-03-23T10:26:12;0.40;;;0.40;;
29200;SDS011;16244;51.956;12.980;2024-03-23T10:28:52;1.43;;;0.40;;
29200;SDS011;16244;51.956;12.980;2024-03-23T10:31:21;0.30;;;0.30;;
29200;SDS011;16244;51.956;12.980;2024-03-23T10:33:47;0.70;;;0.50;;
29200;SDS011;16244;51.956;12.980;2024-03-23T10:36:15;0.40;;;0.40;;
29200;SDS011;16244;51.956;12.980;2024-03-23T10:38:44;0.40;;;0.40;;
29200;SDS011;16244;51.956;12.980;2024-03-23T10:41:12;0.57;;;0.30;;
29200;SDS011;16244;51.956;12.980;2024-03-23T10:43:38;1.37;;;0.50;;
29200;SDS011;16244;51.956;12.980;2024-03-23T10:46:06;0.87;;;0.40;;
29200;SDS011;16244;51.956;12.980;2024-03-23T10:48:33;0.40;;;0.40;;
29200;SDS011;16244;51.956;12.980;2024-03-23T10:51:01;1.90;;;0.40;;
29200;SDS011;16244;51.956;12.980;2024-03-23T10:53:28;0.73;;;0.40;;
29200;SDS011;16244;51.956;12.980;2024-03-23T10:55:57;0.60;;;0.50;;
29200;SDS011;16244;51.956;12.980;2024-03-23T10:58:24;0.30;;;0.30;;
29200;SDS011;16244;51.956;12.980;2024-03-23T11:00:55;0.43;;;0.43;;
29200;SDS011;16244;51.956;12.980;2024-03-23T11:03:35;0.40;;;0.40;;
29200;SDS011;16244;51.956;12.980;2024-03-23T11:06:04;0.47;;;0.40;;
29200;SDS011;16244;51.956;12.980;2024-03-23T11:08:32;1.87;;;1.47;;
29200;SDS011;16244;51.956;12.980;2024-03-23T11:11:15;1.73;;;0.97;;
29200;SDS011;16244;51.956;12.980;2024-03-23T11:13:44;2.00;;;1.00;;
29200;SDS011;16244;51.956;12.980;2024-03-23T11:16:15;10.03;;;9.33;;
29200;SDS011;16244;51.956;12.980;2024-03-23T11:18:42;6.57;;;2.20;;
29200;SDS011;16244;51.956;12.980;2024-03-23T11:21:10;1.10;;;0.80;;
29200;SDS011;16244;51.956;12.980;2024-03-23T11:26:41;3.60;;;0.63;;
29200;SDS011;16244;51.956;12.980;2024-03-23T11:29:08;1.77;;;0.50;;
29200;SDS011;16244;51.956;12.980;2024-03-23T11:31:36;0.70;;;0.40;;
29200;SDS011;16244;51.956;12.980;2024-03-23T11:34:03;1.07;;;0.97;;
29200;SDS011;16244;51.956;12.980;2024-03-23T11:36:32;9.87;;;6.70;;
29200;SDS011;16244;51.956;12.980;2024-03-23T11:38:58;9.67;;;5.10;;
29200;SDS011;16244;51.956;12.980;2024-03-23T11:41:46;4.10;;;3.03;;
29200;SDS011;16244;51.956;12.980;2024-03-23T11:44:14;7.13;;;4.57;;
29200;SDS011;16244;51.956;12.980;2024-03-23T11:46:42;0.60;;;0.57;;
29200;SDS011;16244;51.956;12.980;2024-03-23T11:49:19;7.77;;;2.23;;
29200;SDS011;16244;51.956;12.980;2024-03-23T11:51:50;3.07;;;2.03;;
29200;SDS011;16244;51.956;12.980;2024-03-23T11:54:19;0.83;;;0.83;;
29200;SDS011;16244;51.956;12.980;2024-03-23T11:56:55;2.10;;;0.97;;
29200;SDS011;16244;51.956;12.980;2024-03-23T11:59:32;4.63;;;0.80;;
29200;SDS011;16244;51.956;12.980;2024-03-23T12:02:00;0.80;;;0.80;;
29200;SDS011;16244;51.956;12.980;2024-03-23T12:04:32;3.07;;;1.00;;
29200;SDS011;16244;51.956;12.980;2024-03-23T12:07:11;1.63;;;1.00;;
29200;SDS011;16244;51.956;12.980;2024-03-23T12:09:38;1.90;;;0.60;;
29200;SDS011;16244;51.956;12.980;2024-03-23T12:12:11;0.57;;;0.57;;
29200;SDS011;16244;51.956;12.980;2024-03-23T12:14:41;2.33;;;0.60;;
29200;SDS011;16244;51.956;12.980;2024-03-23T12:17:12;4.80;;;0.70;;
29200;SDS011;16244;51.956;12.980;2024-03-23T12:19:40;2.90;;;0.63;;
29200;SDS011;16244;51.956;12.980;2024-03-23T12:22:08;2.17;;;1.10;;
29200;SDS011;16244;51.956;12.980;2024-03-23T12:24:35;1.00;;;0.60;;
29200;SDS011;16244;51.956;12.980;2024-03-23T12:27:04;2.93;;;0.77;;
29200;SDS011;16244;51.956;12.980;2024-03-23T12:29:32;3.23;;;0.70;;
29200;SDS011;16244;51.956;12.980;2024-03-23T12:32:01;2.67;;;0.60;;
29200;SDS011;16244;51.956;12.980;2024-03-23T12:34:28;0.50;;;0.50;;
29200;SDS011;16244;51.956;12.980;2024-03-23T12:36:57;0.77;;;0.57;;
29200;SDS011;16244;51.956;12.980;2024-03-23T12:39:23;1.13;;;0.57;;
29200;SDS011;16244;51.956;12.980;2024-03-23T12:41:51;5.03;;;0.87;;
29200;SDS011;16244;51.956;12.980;2024-03-23T12:44:18;1.43;;;0.60;;
29200;SDS011;16244;51.956;12.980;2024-03-23T12:46:48;5.30;;;0.80;;
29200;SDS011;16244;51.956;12.980;2024-03-23T12:49:14;2.70;;;0.73;;
29200;SDS011;16244;51.956;12.980;2024-03-23T12:51:46;2.57;;;1.10;;
29200;SDS011;16244;51.956;12.980;2024-03-23T12:54:19;7.20;;;1.80;;
29200;SDS011;16244;51.956;12.980;2024-03-23T12:56:47;6.37;;;1.07;;
29200;SDS011;16244;51.956;12.980;2024-03-23T12:59:15;5.67;;;1.50;;
29200;SDS011;16244;51.956;12.980;2024-03-23T13:01:44;6.43;;;1.30;;
29200;SDS011;16244;51.956;12.980;2024-03-23T13:04:12;1.87;;;1.13;;
29200;SDS011;16244;51.956;12.980;2024-03-23T13:10:21;7.40;;;1.43;;
29200;SDS011;16244;51.956;12.980;2024-03-23T13:12:49;5.10;;;1.50;;
29200;SDS011;16244;51.956;12.980;2024-03-23T13:15:16;7.00;;;1.70;;
29200;SDS011;16244;51.956;12.980;2024-03-23T13:17:45;8.20;;;1.33;;
29200;SDS011;16244;51.956;12.980;2024-03-23T13:20:14;5.17;;;1.40;;
29200;SDS011;16244;51.956;12.980;2024-03-23T13:22:42;1.63;;;0.77;;
29200;SDS011;16244;51.956;12.980;2024-03-23T13:25:10;0.60;;;0.43;;
29200;SDS011;16244;51.956;12.980;2024-03-23T13:27:38;1.00;;;0.50;;
29200;SDS011;16244;51.956;12.980;2024-03-23T13:30:07;0.50;;;0.40;;
29200;SDS011;16244;51.956;12.980;2024-03-23T13:32:36;3.70;;;0.50;;
29200;SDS011;16244;51.956;12.980;2024-03-23T13:35:06;3.47;;;0.50;;
29200;SDS011;16244;51.956;12.980;2024-03-23T13:37:36;2.10;;;0.70;;
29200;SDS011;16244;51.956;12.980;2024-03-23T13:40:04;0.40;;;0.40;;
29200;SDS011;16244;51.956;12.980;2024-03-23T13:42:34;1.40;;;0.60;;
29200;SDS011;16244;51.956;12.980;2024-03-23T13:45:01;2.87;;;0.60;;
29200;SDS011;16244;51.956;12.980;2024-03-23T13:47:30;0.50;;;0.50;;
29200;SDS011;16244;51.956;12.980;2024-03-23T13:49:58;0.80;;;0.80;;
29200;SDS011;16244;51.956;12.980;2024-03-23T13:52:26;8.50;;;0.90;;
29200;SDS011;16244;51.956;12.980;2024-03-23T13:54:55;6.73;;;1.07;;
29200;SDS011;16244;51.956;12.980;2024-03-23T13:57:22;2.90;;;0.90;;
29200;SDS011;16244;51.956;12.980;2024-03-23T13:59:52;8.07;;;1.40;;
29200;SDS011;16244;51.956;12.980;2024-03-23T14:02:21;2.93;;;1.20;;
29200;SDS011;16244;51.956;12.980;2024-03-23T14:04:48;3.50;;;2.60;;
29200;SDS011;16244;51.956;12.980;2024-03-23T14:07:16;1.80;;;1.70;;
29200;SDS011;16244;51.956;12.980;2024-03-23T14:09:44;2.27;;;1.90;;
29200;SDS011;16244;51.956;12.980;2024-03-23T14:12:15;3.30;;;2.07;;
29200;SDS011;16244;51.956;12.980;2024-03-23T14:14:42;2.30;;;1.63;;
29200;SDS011;16244;51.956;12.980;2024-03-23T14:17:11;2.20;;;1.67;;
29200;SDS011;16244;51.956;12.980;2024-03-23T14:19:42;3.47;;;2.10;;
29200;SDS011;16244;51.956;12.980;2024-03-23T14:22:10;2.50;;;1.87;;
29200;SDS011;16244;51.956;12.980;2024-03-23T14:24:37;4.60;;;2.20;;
29200;SDS011;16244;51.956;12.980;2024-03-23T14:27:06;4.53;;;1.97;;
29200;SDS011;16244;51.956;12.980;2024-03-23T14:29:34;1.93;;;1.77;;
29200;SDS011;16244;51.956;12.980;2024-03-23T14:32:02;1.97;;;1.87;;
29200;SDS011;16244;51.956;12.980;2024-03-23T14:34:30;6.87;;;1.83;;
29200;SDS011;16244;51.956;12.980;2024-03-23T14:36:59;6.77;;;1.53;;
29200;SDS011;16244;51.956;12.980;2024-03-23T14:39:26;1.63;;;1.00;;
29200;SDS011;16244;51.956;12.980;2024-03-23T14:41:54;2.27;;;0.63;;
29200;SDS011;16244;51.956;12.980;2024-03-23T14:44:22;1.27;;;0.40;;
29200;SDS011;16244;51.956;12.980;2024-03-23T14:46:51;3.00;;;0.50;;
29200;SDS011;16244;51.956;12.980;2024-03-23T14:49:18;1.73;;;0.60;;
29200;SDS011;16244;51.956;12.980;2024-03-23T14:51:47;0.60;;;0.60;;
29200;SDS011;16244;51.956;12.980;2024-03-23T14:54:14;0.60;;;0.60;;
29200;SDS011;16244;51.956;12.980;2024-03-23T14:56:42;2.97;;;0.60;;
29200;SDS011;16244;51.956;12.980;2024-03-23T14:59:08;0.50;;;0.50;;
29200;SDS011;16244;51.956;12.980;2024-03-23T15:01:37;0.53;;;0.53;;
29200;SDS011;16244;51.956;12.980;2024-03-23T15:04:05;0.70;;;0.70;;
29200;SDS011;16244;51.956;12.980;2024-03-23T15:06:33;1.50;;;0.70;;
29200;SDS011;16244;51.956;12.980;2024-03-23T15:09:00;2.00;;;0.67;;
29200;SDS011;16244;51.956;12.980;2024-03-23T15:11:33;0.50;;;0.50;;
29200;SDS011;16244;51.956;12.980;2024-03-23T15:14:00;0.50;;;0.50;;
29200;SDS011;16244;51.956;12.980;2024-03-23T15:16:28;1.80;;;0.63;;
29200;SDS011;16244;51.956;12.980;2024-03-23T15:18:56;0.70;;;0.70;;
29200;SDS011;16244;51.956;12.980;2024-03-23T15:21:26;1.60;;;0.70;;
29200;SDS011;16244;51.956;12.980;2024-03-23T15:23:54;2.00;;;1.20;;
29200;SDS011;16244;51.956;12.980;2024-03-23T15:26:22;1.60;;;0.90;;
29200;SDS011;16244;51.956;12.980;2024-03-23T15:28:49;1.13;;;1.13;;
29200;SDS011;16244;51.956;12.980;2024-03-23T15:31:32;1.20;;;1.10;;
29200;SDS011;16244;51.956;12.980;2024-03-23T15:34:01;3.63;;;0.77;;
29200;SDS011;16244;51.956;12.980;2024-03-23T15:36:29;0.60;;;0.60;;
29200;SDS011;16244;51.956;12.980;2024-03-23T15:38:57;4.40;;;1.13;;